createdAt,value
2023-05-09T00:01:31.363Z,22.40
2023-05-09T00:04:01.359Z,22.30
2023-05-09T00:06:28.125Z,22.40
2023-05-09T00:08:55.741Z,22.40
2023-05-09T00:11:22.702Z,22.40
2023-05-09T00:13:50.618Z,22.30
2023-05-09T00:16:17.824Z,22.30
2023-05-09T00:18:44.585Z,22.30
2023-05-09T00:21:11.592Z,22.30
2023-05-09T00:23:38.600Z,22.30
2023-05-09T00:26:06.198Z,22.30
2023-05-09T00:28:33.105Z,22.30
2023-05-09T00:30:59.825Z,22.30
2023-05-09T00:33:26.892Z,22.30
2023-05-09T00:35:54.558Z,22.30
2023-05-09T00:38:22.274Z,22.30
2023-05-09T00:40:49.350Z,22.30
2023-05-09T00:43:16.898Z,22.30
2023-05-09T00:45:45.504Z,22.30
2023-05-09T00:48:12.457Z,22.30
2023-05-09T00:50:39.189Z,22.30
2023-05-09T00:53:05.991Z,22.30
2023-05-09T00:55:33.170Z,22.30
2023-05-09T00:57:59.940Z,22.30
2023-05-09T01:00:26.655Z,22.30
2023-05-09T01:02:56.261Z,22.30
2023-05-09T01:05:29.191Z,22.30
2023-05-09T01:08:14.391Z,22.20
2023-05-09T01:10:54.988Z,22.30
2023-05-09T01:13:48.692Z,22.30
2023-05-09T01:16:43.693Z,22.30
2023-05-09T01:19:31.607Z,22.30
2023-05-09T01:22:00.963Z,22.20
2023-05-09T01:24:53.921Z,22.20
2023-05-09T01:27:37.439Z,22.20
2023-05-09T01:30:05.213Z,22.30
2023-05-09T01:32:36.338Z,22.20
2023-05-09T01:35:04.717Z,22.20
2023-05-09T01:37:34.031Z,22.30
2023-05-09T01:40:07.345Z,22.30
2023-05-09T01:42:47.495Z,22.20
2023-05-09T01:45:15.683Z,22.20
2023-05-09T01:47:43.906Z,22.20
2023-05-09T01:50:12.500Z,22.20
2023-05-09T01:52:41.440Z,22.20
2023-05-09T01:55:09.745Z,22.20
2023-05-09T01:57:37.329Z,22.20
2023-05-09T02:00:06.660Z,22.20
2023-05-09T02:02:40.675Z,22.20
2023-05-09T02:05:10.177Z,22.20
2023-05-09T02:07:37.742Z,22.20
2023-05-09T02:10:07.101Z,22.20
2023-05-09T02:12:37.401Z,22.20
2023-05-09T02:15:05.505Z,22.10
2023-05-09T02:17:32.390Z,22.20
2023-05-09T02:19:59.130Z,22.20
2023-05-09T02:22:26.360Z,22.20
2023-05-09T02:24:53.155Z,22.10
2023-05-09T02:27:21.346Z,22.10
2023-05-09T02:29:51.440Z,22.10
2023-05-09T02:32:25.532Z,22.10
2023-05-09T02:34:53.384Z,22.20
2023-05-09T02:37:21.533Z,22.10
2023-05-09T02:39:48.504Z,22.10
2023-05-09T02:42:22.211Z,22.10
2023-05-09T02:44:48.884Z,22.10
2023-05-09T02:47:15.920Z,22.10
2023-05-09T02:49:42.743Z,22.10
2023-05-09T02:52:09.564Z,22.10
2023-05-09T02:54:36.250Z,22.10
2023-05-09T02:57:03.051Z,22.10
2023-05-09T02:59:29.777Z,22.10
2023-05-09T03:02:00.038Z,22.10
2023-05-09T03:04:27.256Z,22.10
2023-05-09T03:06:54.239Z,22.10
2023-05-09T03:09:21.573Z,22.10
2023-05-09T03:11:48.261Z,22.10
2023-05-09T03:14:15.375Z,22.10
2023-05-09T03:16:42.097Z,22.10
2023-05-09T03:19:18.904Z,22.10
2023-05-09T03:21:45.585Z,22.10
2023-05-09T03:24:12.266Z,22.10
2023-05-09T03:26:39.062Z,22.10
2023-05-09T03:29:05.999Z,22.10
2023-05-09T03:31:32.833Z,22.10
2023-05-09T03:33:59.664Z,22.10
2023-05-09T03:36:27.396Z,22.00
2023-05-09T03:38:55.369Z,22.10
2023-05-09T03:41:23.335Z,22.10
2023-05-09T03:43:50.097Z,22.10
2023-05-09T03:46:16.820Z,22.10
2023-05-09T03:48:46.250Z,22.00
2023-05-09T03:51:14.727Z,22.10
2023-05-09T03:53:46.182Z,22.10
2023-05-09T03:56:14.488Z,22.10
2023-05-09T03:58:46.692Z,22.10
2023-05-09T04:01:14.500Z,22.00
2023-05-09T04:03:42.318Z,22.00
2023-05-09T04:06:10.833Z,22.00
2023-05-09T04:08:42.794Z,22.00
2023-05-09T04:11:09.609Z,22.00
2023-05-09T04:13:38.349Z,22.10
2023-05-09T04:16:13.584Z,22.00
2023-05-09T04:18:42.181Z,22.10
2023-05-09T04:21:09.392Z,22.00
2023-05-09T04:23:36.197Z,22.10
2023-05-09T04:26:03.254Z,22.10
2023-05-09T04:28:30.555Z,22.00
2023-05-09T04:30:58.135Z,22.00
2023-05-09T04:33:24.953Z,22.00
2023-05-09T04:35:52.913Z,22.00
2023-05-09T04:38:19.846Z,22.00
2023-05-09T04:40:47.344Z,22.00
2023-05-09T04:43:14.142Z,22.00
2023-05-09T04:45:40.892Z,22.00
2023-05-09T04:48:07.837Z,22.10
2023-05-09T04:50:34.611Z,22.10
2023-05-09T04:53:03.384Z,22.00
2023-05-09T04:55:30.334Z,22.10
2023-05-09T04:57:57.279Z,22.10
2023-05-09T05:00:24.805Z,22.00
2023-05-09T05:02:51.515Z,22.10
2023-05-09T05:05:24.620Z,22.00
2023-05-09T05:07:53.427Z,22.00
2023-05-09T05:10:23.023Z,22.10
2023-05-09T05:12:54.642Z,22.00
2023-05-09T05:15:21.468Z,22.10
2023-05-09T05:17:48.699Z,22.10
2023-05-09T05:20:18.262Z,22.10
2023-05-09T05:22:46.433Z,22.10
2023-05-09T05:25:13.628Z,22.10
2023-05-09T05:27:41.735Z,22.10
2023-05-09T05:30:11.825Z,22.10
2023-05-09T05:32:38.593Z,22.10
2023-05-09T05:35:06.265Z,22.10
2023-05-09T05:37:36.550Z,22.10
2023-05-09T05:40:03.526Z,22.10
2023-05-09T05:42:30.880Z,22.10
2023-05-09T05:44:58.011Z,22.10
2023-05-09T05:47:25.270Z,22.10
2023-05-09T05:49:52.572Z,22.10
2023-05-09T05:52:19.683Z,22.10
2023-05-09T05:54:46.422Z,22.10
2023-05-09T05:57:13.187Z,22.10
2023-05-09T05:59:40.204Z,22.10
2023-05-09T06:02:07.190Z,22.10
2023-05-09T06:04:34.886Z,22.00
2023-05-09T06:07:02.052Z,22.10
2023-05-09T06:09:28.742Z,22.10
2023-05-09T06:11:55.434Z,22.10
2023-05-09T06:14:22.215Z,22.10
2023-05-09T06:16:49.043Z,22.00
2023-05-09T06:19:15.893Z,22.10
2023-05-09T06:21:42.562Z,22.10
2023-05-09T06:24:16.688Z,22.10
2023-05-09T06:26:50.927Z,22.10
2023-05-09T06:29:17.622Z,22.10
2023-05-09T06:31:44.319Z,22.10
2023-05-09T06:34:11.148Z,22.00
2023-05-09T06:36:37.828Z,22.10
2023-05-09T06:39:04.582Z,22.10
2023-05-09T06:41:31.565Z,22.00
2023-05-09T06:43:58.254Z,22.10
2023-05-09T06:46:25.010Z,22.10
2023-05-09T06:48:51.704Z,22.10
2023-05-09T06:51:18.389Z,22.10
2023-05-09T06:53:45.142Z,22.10
2023-05-09T06:56:12.177Z,22.10
2023-05-09T06:58:39.113Z,22.10
2023-05-09T07:01:06.025Z,22.10
2023-05-09T07:03:33.066Z,22.20
2023-05-09T07:05:59.892Z,22.20
2023-05-09T07:08:27.017Z,22.20
2023-05-09T07:10:53.854Z,22.20
2023-05-09T07:13:20.755Z,22.30
2023-05-09T07:15:47.553Z,22.40
2023-05-09T07:18:14.287Z,22.40
2023-05-09T07:20:41.203Z,22.50
2023-05-09T07:23:07.910Z,22.50
2023-05-09T07:25:34.594Z,22.50
2023-05-09T07:28:01.277Z,22.60
2023-05-09T07:30:27.999Z,22.60
2023-05-09T07:32:54.698Z,22.70
2023-05-09T07:35:21.535Z,22.70
2023-05-09T07:37:48.316Z,22.70
2023-05-09T07:40:15.480Z,22.80
2023-05-09T07:42:46.152Z,22.80
2023-05-09T07:45:13.222Z,22.80
2023-05-09T07:47:40.391Z,22.80
2023-05-09T07:50:07.574Z,22.90
2023-05-09T07:52:34.262Z,22.90
2023-05-09T07:55:00.972Z,22.90
2023-05-09T07:57:27.701Z,23.00
2023-05-09T07:59:54.462Z,23.00
2023-05-09T08:02:21.522Z,23.00
2023-05-09T08:04:48.969Z,23.00
2023-05-09T08:07:16.155Z,23.00
2023-05-09T08:09:42.872Z,23.00
2023-05-09T08:12:09.616Z,23.00
2023-05-09T08:14:36.307Z,23.00
2023-05-09T08:17:02.976Z,23.10
2023-05-09T08:19:29.759Z,23.00
2023-05-09T08:21:56.551Z,23.00
2023-05-09T08:24:23.323Z,23.00
2023-05-09T08:26:50.065Z,23.00
2023-05-09T08:29:17.726Z,23.00
2023-05-09T08:31:44.518Z,23.00
2023-05-09T08:34:11.276Z,23.00
2023-05-09T08:36:38.026Z,23.00
2023-05-09T08:39:04.715Z,23.00
2023-05-09T08:41:35.981Z,23.10
2023-05-09T08:44:03.347Z,23.10
2023-05-09T08:46:36.511Z,23.10
2023-05-09T08:49:06.843Z,23.10
2023-05-09T08:51:35.109Z,23.10
2023-05-09T08:54:02.298Z,23.10
2023-05-09T08:56:30.951Z,23.10
2023-05-09T08:58:58.934Z,23.10
2023-05-09T09:01:26.883Z,23.10
2023-05-09T09:03:53.983Z,23.20
2023-05-09T09:06:22.394Z,23.10
2023-05-09T09:08:50.474Z,23.20
2023-05-09T09:11:17.635Z,23.20
2023-05-09T09:13:45.868Z,23.20
2023-05-09T09:16:20.107Z,23.20
2023-05-09T09:18:46.984Z,23.20
2023-05-09T09:21:17.029Z,23.10
2023-05-09T09:23:47.285Z,23.20
2023-05-09T09:26:14.236Z,23.20
2023-05-09T09:28:41.138Z,23.20
2023-05-09T09:31:25.546Z,23.20
2023-05-09T09:33:52.431Z,23.20
2023-05-09T09:36:29.933Z,23.20
2023-05-09T09:39:00.416Z,23.10
2023-05-09T09:41:34.780Z,23.20
2023-05-09T09:44:09.677Z,23.20
2023-05-09T09:46:43.438Z,23.20
2023-05-09T09:49:11.230Z,23.20
2023-05-09T09:51:38.028Z,23.20
2023-05-09T09:54:08.729Z,23.30
2023-05-09T09:56:43.895Z,23.20
2023-05-09T09:59:12.560Z,23.20
2023-05-09T10:02:00.332Z,23.20
2023-05-09T10:04:37.685Z,23.20
2023-05-09T10:07:06.495Z,23.20
2023-05-09T10:09:34.906Z,23.20
2023-05-09T10:12:04.402Z,23.20
2023-05-09T10:14:34.332Z,23.20
2023-05-09T10:17:03.754Z,23.10
2023-05-09T10:19:31.802Z,23.10
2023-05-09T10:22:04.135Z,23.10
2023-05-09T10:25:09.319Z,23.10
2023-05-09T10:27:37.381Z,23.10
2023-05-09T10:30:35.874Z,23.10
2023-05-09T10:33:11.544Z,23.10
2023-05-09T10:35:48.252Z,23.10
2023-05-09T10:38:16.106Z,23.10
2023-05-09T10:40:46.502Z,23.10
2023-05-09T10:43:13.723Z,23.10
2023-05-09T10:45:41.668Z,23.10
2023-05-09T10:48:09.448Z,23.10
2023-05-09T10:50:37.211Z,23.10
2023-05-09T10:53:03.883Z,23.10
2023-05-09T10:55:50.106Z,23.00
2023-05-09T10:58:20.369Z,23.00
2023-05-09T11:00:51.836Z,23.00
2023-05-09T11:03:19.433Z,23.00
2023-05-09T11:05:47.976Z,23.00
2023-05-09T11:08:30.856Z,23.00
2023-05-09T11:11:02.006Z,23.00
2023-05-09T11:13:31.851Z,23.00
2023-05-09T11:16:01.802Z,23.00
2023-05-09T11:18:29.392Z,23.00
2023-05-09T11:20:56.653Z,23.00
2023-05-09T11:23:33.587Z,23.00
2023-05-09T11:26:08.846Z,23.00
2023-05-09T11:28:36.986Z,23.00
2023-05-09T11:31:17.521Z,23.00
2023-05-09T11:33:46.879Z,23.00
2023-05-09T11:36:33.478Z,23.00
2023-05-09T11:39:08.241Z,23.00
2023-05-09T11:41:43.462Z,22.90
2023-05-09T11:44:21.111Z,22.90
2023-05-09T11:46:49.217Z,22.90
2023-05-09T11:49:17.183Z,22.90
2023-05-09T11:51:44.093Z,23.00
2023-05-09T11:54:12.227Z,22.90
2023-05-09T11:56:41.496Z,23.00
2023-05-09T11:59:08.536Z,23.00
2023-05-09T12:01:36.650Z,22.90
2023-05-09T12:04:06.018Z,22.90
2023-05-09T12:06:32.908Z,22.90
2023-05-09T12:08:59.572Z,22.90
2023-05-09T12:11:29.244Z,23.00
2023-05-09T12:13:55.941Z,23.00
2023-05-09T12:16:22.926Z,23.00
2023-05-09T12:18:52.525Z,23.00
2023-05-09T12:21:20.416Z,23.10
2023-05-09T12:23:50.691Z,23.00
2023-05-09T12:26:18.299Z,23.00
2023-05-09T12:28:45.660Z,23.00
2023-05-09T12:31:12.930Z,22.90
2023-05-09T12:33:40.171Z,22.90
2023-05-09T12:36:12.009Z,22.90
2023-05-09T12:38:39.379Z,22.90
2023-05-09T12:41:12.965Z,23.00
2023-05-09T12:43:49.990Z,22.90
2023-05-09T12:46:23.452Z,22.90
2023-05-09T12:48:50.415Z,22.90
2023-05-09T12:51:21.911Z,22.90
2023-05-09T12:53:49.134Z,22.90
2023-05-09T12:56:17.892Z,22.90
2023-05-09T12:58:51.666Z,22.90
2023-05-09T13:01:23.889Z,22.90
2023-05-09T13:04:01.599Z,22.90
2023-05-09T13:06:28.465Z,22.90
2023-05-09T13:09:02.756Z,22.80
2023-05-09T13:11:30.054Z,22.90
2023-05-09T13:13:57.267Z,22.90
2023-05-09T13:16:24.297Z,22.90
2023-05-09T13:18:51.313Z,22.90
2023-05-09T13:21:18.099Z,22.90
2023-05-09T13:23:45.466Z,22.90
2023-05-09T13:26:12.322Z,22.90
2023-05-09T13:28:39.080Z,22.90
2023-05-09T13:31:06.699Z,22.90
2023-05-09T13:33:33.706Z,22.90
2023-05-09T13:36:00.526Z,22.90
2023-05-09T13:38:30.691Z,22.90
2023-05-09T13:40:57.625Z,22.90
2023-05-09T13:43:24.385Z,22.90
2023-05-09T13:45:51.214Z,22.80
2023-05-09T13:48:17.978Z,22.90
2023-05-09T13:50:44.630Z,22.90
2023-05-09T13:53:11.305Z,22.90
2023-05-09T13:55:38.165Z,22.90
2023-05-09T13:58:04.867Z,22.80
2023-05-09T14:00:31.542Z,22.80
2023-05-09T14:02:58.220Z,22.80
2023-05-09T14:05:24.999Z,22.80
2023-05-09T14:07:51.726Z,22.80
2023-05-09T14:10:18.586Z,22.80
2023-05-09T14:12:47.083Z,22.80
2023-05-09T14:15:13.933Z,22.80
2023-05-09T14:17:40.827Z,22.80
2023-05-09T14:20:08.194Z,22.80
2023-05-09T14:22:35.229Z,22.80
2023-05-09T14:25:02.156Z,22.80
2023-05-09T14:27:28.940Z,22.80
2023-05-09T14:29:56.165Z,22.80
2023-05-09T14:32:22.859Z,22.80
2023-05-09T14:34:49.788Z,22.80
2023-05-09T14:37:16.845Z,22.80
2023-05-09T14:39:45.105Z,22.80
2023-05-09T14:42:13.984Z,22.80
2023-05-09T14:44:41.802Z,22.80
2023-05-09T14:47:12.066Z,22.80
2023-05-09T14:49:39.980Z,22.80
2023-05-09T14:52:06.683Z,22.80
2023-05-09T14:54:33.552Z,22.80
2023-05-09T14:57:01.900Z,22.80
2023-05-09T14:59:29.462Z,22.80
2023-05-09T15:01:56.364Z,22.80
2023-05-09T15:04:25.420Z,22.80
2023-05-09T15:06:52.177Z,22.80
2023-05-09T15:09:19.311Z,22.80
2023-05-09T15:11:48.612Z,22.80
2023-05-09T15:14:16.548Z,22.80
2023-05-09T15:16:43.735Z,22.80
2023-05-09T15:19:10.539Z,22.80
2023-05-09T15:21:37.256Z,22.80
2023-05-09T15:24:04.842Z,22.80
2023-05-09T15:26:32.093Z,22.80
2023-05-09T15:28:58.879Z,22.80
2023-05-09T15:31:25.993Z,22.80
2023-05-09T15:33:53.428Z,22.80
2023-05-09T15:36:20.084Z,22.80
2023-05-09T15:38:49.471Z,22.80
2023-05-09T15:41:16.829Z,22.70
2023-05-09T15:43:43.601Z,22.70
2023-05-09T15:46:10.528Z,22.80
2023-05-09T15:48:37.403Z,22.70
2023-05-09T15:51:04.321Z,22.70
2023-05-09T15:53:31.557Z,22.70
2023-05-09T15:55:58.270Z,22.70
2023-05-09T15:58:25.176Z,22.80
2023-05-09T16:00:51.962Z,22.70
2023-05-09T16:03:19.082Z,22.80
2023-05-09T16:05:45.914Z,22.70
2023-05-09T16:08:12.696Z,22.70
2023-05-09T16:10:39.605Z,22.70
2023-05-09T16:13:07.392Z,22.70
2023-05-09T16:15:34.237Z,22.70
2023-05-09T16:18:01.176Z,22.70
2023-05-09T16:20:27.868Z,22.80
2023-05-09T16:22:54.600Z,22.70
2023-05-09T16:25:21.340Z,22.80
2023-05-09T16:27:48.006Z,22.80
2023-05-09T16:30:16.169Z,22.80
2023-05-09T16:32:43.381Z,22.80
2023-05-09T16:35:10.486Z,22.80
2023-05-09T16:37:37.428Z,22.80
2023-05-09T16:40:04.687Z,22.80
2023-05-09T16:42:31.702Z,22.80
2023-05-09T16:44:58.551Z,22.80
2023-05-09T16:47:25.519Z,22.80
2023-05-09T16:49:52.281Z,22.80
2023-05-09T16:52:19.019Z,22.80
2023-05-09T16:54:45.764Z,22.80
2023-05-09T16:57:13.171Z,22.70
2023-05-09T16:59:40.110Z,22.80
2023-05-09T17:02:08.427Z,22.80
2023-05-09T17:04:37.515Z,22.80
2023-05-09T17:07:04.757Z,22.80
2023-05-09T17:09:32.126Z,22.80
2023-05-09T17:11:59.029Z,22.80
2023-05-09T17:14:26.725Z,22.80
2023-05-09T17:16:53.830Z,22.80
2023-05-09T17:19:23.173Z,22.80
2023-05-09T17:21:50.036Z,22.80
2023-05-09T17:24:17.219Z,22.80
2023-05-09T17:26:43.949Z,22.80
2023-05-09T17:29:10.677Z,22.80
2023-05-09T17:31:37.436Z,22.70
2023-05-09T17:34:05.411Z,22.70
2023-05-09T17:36:33.512Z,22.70
2023-05-09T17:39:00.814Z,22.70
2023-05-09T17:41:27.680Z,22.70
2023-05-09T17:43:57.051Z,22.70
2023-05-09T17:46:24.073Z,22.70
2023-05-09T17:48:50.857Z,22.70
2023-05-09T17:51:17.637Z,22.70
2023-05-09T17:53:44.344Z,22.80
2023-05-09T17:56:11.054Z,22.80
2023-05-09T17:58:37.748Z,22.80
2023-05-09T18:01:05.348Z,22.80
2023-05-09T18:03:32.559Z,22.70
2023-05-09T18:06:00.340Z,22.70
2023-05-09T18:08:27.432Z,22.70
2023-05-09T18:10:56.865Z,22.60
2023-05-09T18:13:23.685Z,22.60
2023-05-09T18:15:50.564Z,22.60
2023-05-09T18:18:17.392Z,22.60
2023-05-09T18:20:46.252Z,22.60
2023-05-09T18:23:14.669Z,22.60
2023-05-09T18:25:41.930Z,22.60
2023-05-09T18:28:09.316Z,22.60
2023-05-09T18:30:36.121Z,22.60
2023-05-09T18:33:03.169Z,22.60
2023-05-09T18:35:29.982Z,22.50
2023-05-09T18:37:56.786Z,22.60
2023-05-09T18:40:23.521Z,22.60
2023-05-09T18:42:50.313Z,22.60
2023-05-09T18:45:17.018Z,22.50
2023-05-09T18:47:43.695Z,22.50
2023-05-09T18:50:11.110Z,22.50
2023-05-09T18:52:38.418Z,22.50
2023-05-09T18:55:06.024Z,22.50
2023-05-09T18:57:33.740Z,22.50
2023-05-09T19:00:00.527Z,22.50
2023-05-09T19:02:27.368Z,22.50
2023-05-09T19:04:54.057Z,22.50
2023-05-09T19:07:20.804Z,22.50
2023-05-09T19:09:47.723Z,22.50
2023-05-09T19:12:16.342Z,22.50
2023-05-09T19:14:43.389Z,22.50
2023-05-09T19:17:10.827Z,22.50
2023-05-09T19:19:37.632Z,22.50
2023-05-09T19:22:04.853Z,22.50
2023-05-09T19:24:32.803Z,22.50
2023-05-09T19:26:59.615Z,22.50
2023-05-09T19:29:26.300Z,22.50
2023-05-09T19:31:53.091Z,22.50
2023-05-09T19:34:19.805Z,22.50
2023-05-09T19:36:46.502Z,22.50
2023-05-09T19:39:13.157Z,22.50
2023-05-09T19:41:40.823Z,22.50
2023-05-09T19:44:07.581Z,22.50
2023-05-09T19:46:35.250Z,22.50
2023-05-09T19:49:02.137Z,22.50
2023-05-09T19:51:29.537Z,22.50
2023-05-09T19:53:56.241Z,22.50
2023-05-09T19:56:23.846Z,22.50
2023-05-09T19:58:50.564Z,22.50
2023-05-09T20:01:18.968Z,22.50
2023-05-09T20:03:47.025Z,22.50
2023-05-09T20:06:13.907Z,22.50
2023-05-09T20:08:40.640Z,22.50
2023-05-09T20:11:07.775Z,22.50
2023-05-09T20:13:34.520Z,22.50
2023-05-09T20:16:02.746Z,22.50
2023-05-09T20:18:33.103Z,22.50
2023-05-09T20:21:00.931Z,22.50
2023-05-09T20:23:28.157Z,22.50
2023-05-09T20:25:55.667Z,22.50
2023-05-09T20:28:22.968Z,22.50
2023-05-09T20:30:50.090Z,22.50
2023-05-09T20:33:16.857Z,22.50
2023-05-09T20:35:43.831Z,22.50
2023-05-09T20:38:13.317Z,22.40
2023-05-09T20:40:41.289Z,22.50
2023-05-09T20:43:07.996Z,22.50
2023-05-09T20:45:37.171Z,22.40
2023-05-09T20:48:05.606Z,22.50
2023-05-09T20:50:32.391Z,22.50
2023-05-09T20:52:59.107Z,22.50
2023-05-09T20:55:25.790Z,22.50
2023-05-09T20:57:52.456Z,22.40
2023-05-09T21:00:19.304Z,22.50
2023-05-09T21:02:46.266Z,22.40
2023-05-09T21:05:12.993Z,22.40
2023-05-09T21:07:39.680Z,22.40
2023-05-09T21:10:06.926Z,22.40
2023-05-09T21:12:33.574Z,22.40
2023-05-09T21:15:00.306Z,22.40
2023-05-09T21:17:27.058Z,22.40
2023-05-09T21:19:53.769Z,22.40
2023-05-09T21:22:20.457Z,22.40
2023-05-09T21:24:47.348Z,22.40
2023-05-09T21:27:14.299Z,22.40
2023-05-09T21:29:40.998Z,22.40
2023-05-09T21:32:07.689Z,22.40
2023-05-09T21:34:34.417Z,22.40
2023-05-09T21:37:01.111Z,22.40
2023-05-09T21:39:27.798Z,22.40
2023-05-09T21:41:57.324Z,22.40
2023-05-09T21:44:24.491Z,22.40
2023-05-09T21:46:51.351Z,22.40
2023-05-09T21:49:18.252Z,22.40
2023-05-09T21:51:44.953Z,22.40
2023-05-09T21:54:11.875Z,22.40
2023-05-09T21:56:38.703Z,22.40
2023-05-09T21:59:05.520Z,22.40
2023-05-09T22:01:32.294Z,22.40
2023-05-09T22:03:59.188Z,22.40
2023-05-09T22:06:26.001Z,22.40
2023-05-09T22:08:52.712Z,22.40
2023-05-09T22:11:19.968Z,22.40
2023-05-09T22:13:46.678Z,22.30
2023-05-09T22:16:13.402Z,22.40
2023-05-09T22:18:40.130Z,22.40
2023-05-09T22:21:07.032Z,22.40
2023-05-09T22:23:33.750Z,22.40
2023-05-09T22:26:00.461Z,22.40
2023-05-09T22:28:28.442Z,22.40
2023-05-09T22:30:55.185Z,22.40
2023-05-09T22:33:21.896Z,22.40
2023-05-09T22:35:48.681Z,22.40
2023-05-09T22:38:15.346Z,22.40
2023-05-09T22:40:42.053Z,22.40
2023-05-09T22:43:10.411Z,22.40
2023-05-09T22:45:37.662Z,22.40
2023-05-09T22:48:04.913Z,22.40
2023-05-09T22:50:31.783Z,22.40
2023-05-09T22:52:58.478Z,22.40
2023-05-09T22:55:25.218Z,22.40
2023-05-09T22:57:51.977Z,22.40
2023-05-09T23:00:19.112Z,22.40
2023-05-09T23:02:45.972Z,22.40
2023-05-09T23:05:12.814Z,22.40
2023-05-09T23:07:39.512Z,22.40
2023-05-09T23:10:07.173Z,22.40
2023-05-09T23:12:33.912Z,22.40
2023-05-09T23:15:00.640Z,22.40
2023-05-09T23:17:27.610Z,22.40
2023-05-09T23:19:54.312Z,22.40
2023-05-09T23:22:20.942Z,22.40
2023-05-09T23:24:47.659Z,22.40
2023-05-09T23:27:14.460Z,22.40
2023-05-09T23:29:41.095Z,22.40
2023-05-09T23:32:07.767Z,22.40
2023-05-09T23:34:36.167Z,22.40
2023-05-09T23:37:03.992Z,22.40
2023-05-09T23:39:31.557Z,22.40
2023-05-09T23:41:58.474Z,22.40
2023-05-09T23:44:25.684Z,22.40
2023-05-09T23:46:52.479Z,22.40
2023-05-09T23:49:19.200Z,22.40
2023-05-09T23:51:45.854Z,22.40
2023-05-09T23:54:12.552Z,22.30
2023-05-09T23:56:39.693Z,22.30
2023-05-09T23:59:06.368Z,22.40
